createdAt,value
2023-01-11T00:01:56.959Z,88.56
2023-01-11T00:04:29.995Z,88.64
2023-01-11T00:06:57.522Z,88.34
2023-01-11T00:09:24.089Z,87.78
2023-01-11T00:11:50.643Z,88.00
2023-01-11T00:14:17.342Z,88.34
2023-01-11T00:16:44.160Z,88.35
2023-01-11T00:19:13.073Z,88.12
2023-01-11T00:21:39.851Z,87.79
2023-01-11T00:24:06.361Z,87.71
2023-01-11T00:26:32.755Z,87.92
2023-01-11T00:28:59.890Z,87.79
2023-01-11T00:31:27.138Z,87.67
2023-01-11T00:33:53.729Z,87.64
2023-01-11T00:36:21.494Z,87.67
2023-01-11T00:38:51.391Z,87.65
2023-01-11T00:41:37.063Z,87.63
2023-01-11T00:44:23.561Z,87.56
2023-01-11T00:47:09.538Z,87.84
2023-01-11T00:49:36.280Z,87.48
2023-01-11T00:52:07.035Z,87.49
2023-01-11T00:54:35.912Z,87.38
2023-01-11T00:57:02.367Z,87.30
2023-01-11T00:59:29.393Z,87.17
2023-01-11T01:01:55.898Z,86.99
2023-01-11T01:04:22.371Z,87.38
2023-01-11T01:06:48.907Z,87.59
2023-01-11T01:09:15.507Z,87.46
2023-01-11T01:11:42.060Z,87.82
2023-01-11T01:14:28.630Z,87.71
2023-01-11T01:17:02.241Z,87.56
2023-01-11T01:19:30.660Z,87.99
2023-01-11T01:21:58.697Z,87.83
2023-01-11T01:24:28.631Z,87.83
2023-01-11T01:26:56.601Z,87.77
2023-01-11T01:29:23.842Z,87.90
2023-01-11T01:31:50.698Z,87.90
2023-01-11T01:34:17.673Z,87.92
2023-01-11T01:36:44.431Z,87.90
2023-01-11T01:39:12.535Z,87.66
2023-01-11T01:41:39.520Z,87.10
2023-01-11T01:44:44.623Z,87.25
2023-01-11T01:47:12.322Z,88.08
2023-01-11T01:49:40.524Z,87.94
2023-01-11T01:52:08.910Z,87.52
2023-01-11T01:54:39.316Z,87.42
2023-01-11T01:57:12.481Z,86.95
2023-01-11T01:59:39.505Z,87.51
2023-01-11T02:02:05.950Z,87.84
2023-01-11T02:04:44.089Z,87.22
2023-01-11T02:07:16.150Z,87.82
2023-01-11T02:09:52.688Z,87.72
2023-01-11T02:12:21.171Z,87.21
2023-01-11T02:14:48.875Z,86.61
2023-01-11T02:17:15.846Z,87.21
2023-01-11T02:20:10.519Z,87.12
2023-01-11T02:23:20.760Z,87.90
2023-01-11T02:26:22.290Z,87.60
2023-01-11T02:29:18.402Z,87.56
2023-01-11T02:32:23.505Z,87.18
2023-01-11T02:34:59.743Z,87.25
2023-01-11T02:37:38.296Z,86.85
2023-01-11T02:40:15.755Z,87.68
2023-01-11T02:43:11.657Z,86.57
2023-01-11T02:45:50.404Z,86.97
2023-01-11T02:48:42.962Z,86.37
2023-01-11T02:51:17.601Z,86.69
2023-01-11T02:53:50.275Z,86.94
2023-01-11T02:56:21.911Z,87.05
2023-01-11T02:58:51.692Z,87.10
2023-01-11T03:01:22.745Z,86.83
2023-01-11T03:03:52.795Z,86.89
2023-01-11T03:06:24.150Z,87.10
2023-01-11T03:09:12.177Z,86.53
2023-01-11T03:12:06.454Z,86.90
2023-01-11T03:14:41.768Z,86.55
2023-01-11T03:17:33.160Z,86.38
2023-01-11T03:20:18.942Z,86.86
2023-01-11T03:23:10.374Z,86.65
2023-01-11T03:26:03.450Z,86.13
2023-01-11T03:28:48.712Z,86.49
2023-01-11T03:31:21.340Z,87.06
2023-01-11T03:33:59.726Z,86.74
2023-01-11T03:36:39.933Z,86.58
2023-01-11T03:39:20.706Z,86.08
2023-01-11T03:41:51.116Z,85.98
2023-01-11T03:44:20.165Z,86.23
2023-01-11T03:46:51.594Z,86.26
2023-01-11T03:49:24.801Z,87.18
2023-01-11T03:51:53.447Z,86.71
2023-01-11T03:54:25.369Z,86.57
2023-01-11T03:57:12.761Z,86.67
2023-01-11T03:59:40.477Z,86.38
2023-01-11T04:02:16.684Z,86.94
2023-01-11T04:04:43.471Z,86.66
2023-01-11T04:07:10.252Z,86.94
2023-01-11T04:09:38.228Z,86.69
2023-01-11T04:12:05.698Z,86.41
2023-01-11T04:14:32.382Z,86.56
2023-01-11T04:16:58.857Z,86.59
2023-01-11T04:19:25.253Z,86.65
2023-01-11T04:21:51.869Z,86.52
2023-01-11T04:24:18.982Z,86.38
2023-01-11T04:26:45.879Z,86.35
2023-01-11T04:29:12.609Z,86.45
2023-01-11T04:31:39.188Z,85.94
2023-01-11T04:34:05.849Z,85.73
2023-01-11T04:36:33.474Z,85.79
2023-01-11T04:39:00.493Z,85.27
2023-01-11T04:41:45.933Z,84.95
2023-01-11T04:44:12.374Z,85.39
2023-01-11T04:46:38.873Z,85.14
2023-01-11T04:49:05.421Z,85.23
2023-01-11T04:51:32.016Z,84.90
2023-01-11T04:53:58.660Z,85.13
2023-01-11T04:56:25.113Z,85.36
2023-01-11T04:58:51.599Z,85.34
2023-01-11T05:01:19.351Z,85.69
2023-01-11T05:03:47.247Z,85.70
2023-01-11T05:06:14.730Z,85.27
2023-01-11T05:08:48.247Z,85.74
2023-01-11T05:11:16.199Z,86.31
2023-01-11T05:13:43.851Z,86.99
2023-01-11T05:16:17.763Z,86.77
2023-01-11T05:18:46.735Z,88.09
2023-01-11T05:21:16.084Z,89.80
2023-01-11T05:23:43.741Z,89.08
2023-01-11T05:26:13.112Z,89.89
2023-01-11T05:28:40.023Z,89.25
2023-01-11T05:31:06.499Z,89.75
2023-01-11T05:33:33.310Z,90.15
2023-01-11T05:36:09.946Z,89.58
2023-01-11T05:38:36.824Z,89.19
2023-01-11T05:41:06.354Z,89.52
2023-01-11T05:43:54.339Z,89.09
2023-01-11T05:46:22.121Z,88.12
2023-01-11T05:48:49.316Z,88.40
2023-01-11T05:51:16.233Z,89.02
2023-01-11T05:53:43.143Z,88.39
2023-01-11T05:56:09.734Z,89.57
2023-01-11T05:58:36.858Z,88.12
2023-01-11T06:01:03.468Z,89.19
2023-01-11T06:03:30.563Z,88.81
2023-01-11T06:05:59.588Z,89.28
2023-01-11T06:08:26.206Z,88.63
2023-01-11T06:10:54.064Z,88.48
2023-01-11T06:13:27.544Z,87.38
2023-01-11T06:16:03.185Z,87.72
2023-01-11T06:18:34.645Z,88.42
2023-01-11T06:21:01.562Z,89.01
2023-01-11T06:23:30.654Z,89.39
2023-01-11T06:26:00.603Z,89.96
2023-01-11T06:28:27.724Z,89.76
2023-01-11T06:30:56.211Z,89.44
2023-01-11T06:33:24.827Z,88.87
2023-01-11T06:35:52.375Z,90.34
2023-01-11T06:38:21.816Z,90.06
2023-01-11T06:41:00.296Z,88.77
2023-01-11T06:43:29.268Z,88.81
2023-01-11T06:45:56.704Z,88.75
2023-01-11T06:48:23.749Z,87.85
2023-01-11T06:50:52.987Z,88.10
2023-01-11T06:53:19.991Z,89.09
2023-01-11T06:55:54.681Z,88.63
2023-01-11T06:58:23.685Z,88.27
2023-01-11T07:00:55.390Z,89.29
2023-01-11T07:03:24.547Z,89.92
2023-01-11T07:05:56.802Z,90.95
2023-01-11T07:08:25.426Z,91.10
2023-01-11T07:10:52.400Z,90.88
2023-01-11T07:13:20.338Z,90.65
2023-01-11T07:15:50.298Z,91.40
2023-01-11T07:18:19.039Z,90.42
2023-01-11T07:20:45.499Z,91.00
2023-01-11T07:23:12.042Z,91.66
2023-01-11T07:25:38.632Z,91.94
2023-01-11T07:28:07.466Z,91.37
2023-01-11T07:30:51.764Z,91.80
2023-01-11T07:33:25.977Z,91.60
2023-01-11T07:35:52.588Z,91.85
2023-01-11T07:38:19.456Z,91.77
2023-01-11T07:40:46.071Z,92.29
2023-01-11T07:43:18.134Z,92.32
2023-01-11T07:45:49.020Z,92.84
2023-01-11T07:48:20.827Z,92.68
2023-01-11T07:50:48.377Z,92.27
2023-01-11T07:53:14.941Z,92.38
2023-01-11T07:55:42.685Z,91.96
2023-01-11T07:58:11.282Z,92.16
2023-01-11T08:00:40.588Z,92.97
2023-01-11T08:03:07.240Z,93.40
2023-01-11T08:05:33.741Z,92.98
2023-01-11T08:08:00.721Z,92.86
2023-01-11T08:10:27.355Z,93.40
2023-01-11T08:13:12.865Z,94.23
2023-01-11T08:15:42.496Z,93.76
2023-01-11T08:18:11.309Z,94.18
2023-01-11T08:20:38.935Z,93.62
2023-01-11T08:23:08.162Z,94.02
2023-01-11T08:25:35.684Z,93.95
2023-01-11T08:28:03.908Z,94.16
2023-01-11T08:30:30.588Z,94.07
2023-01-11T08:33:01.467Z,94.24
2023-01-11T08:35:28.807Z,94.44
2023-01-11T08:37:55.164Z,94.38
2023-01-11T08:40:24.046Z,94.23
2023-01-11T08:42:56.573Z,94.17
2023-01-11T08:45:24.198Z,94.67
2023-01-11T08:47:51.790Z,94.73
2023-01-11T08:50:19.681Z,94.83
2023-01-11T08:52:49.450Z,94.72
2023-01-11T08:55:16.758Z,94.46
2023-01-11T08:57:43.386Z,94.44
2023-01-11T09:00:10.584Z,95.15
2023-01-11T09:02:37.772Z,94.81
2023-01-11T09:05:04.716Z,95.01
2023-01-11T09:07:31.437Z,95.20
2023-01-11T09:09:57.784Z,94.88
2023-01-11T09:12:24.541Z,94.89
2023-01-11T09:14:51.085Z,93.77
2023-01-11T09:17:17.544Z,91.76
2023-01-11T09:19:44.065Z,92.67
2023-01-11T09:22:11.384Z,92.84
2023-01-11T09:24:38.060Z,93.70
2023-01-11T09:27:05.108Z,94.04
2023-01-11T09:29:31.983Z,94.05
2023-01-11T09:31:59.015Z,93.56
2023-01-11T09:34:27.244Z,93.78
2023-01-11T09:36:56.596Z,93.89
2023-01-11T09:39:26.247Z,93.33
2023-01-11T09:42:12.177Z,93.98
2023-01-11T09:44:57.223Z,93.91
2023-01-11T09:47:36.674Z,93.80
2023-01-11T09:50:10.355Z,93.96
2023-01-11T09:52:42.922Z,93.81
2023-01-11T09:55:15.240Z,94.02
2023-01-11T09:57:48.261Z,94.12
2023-01-11T10:00:40.186Z,93.96
2023-01-11T10:03:45.443Z,93.92
2023-01-11T10:06:19.981Z,93.64
2023-01-11T10:18:31.913Z,94.26
2023-01-11T10:18:32.374Z,93.98
2023-01-11T10:21:05.298Z,94.62
2023-01-11T10:23:50.220Z,94.81
2023-01-11T10:26:32.351Z,94.72
2023-01-11T10:29:22.094Z,94.72
2023-01-11T10:32:03.132Z,94.61
2023-01-11T10:35:00.610Z,94.53
2023-01-11T10:37:54.090Z,94.45
2023-01-11T10:40:35.084Z,94.66
2023-01-11T10:43:21.754Z,94.63
2023-01-11T10:45:55.683Z,94.61
2023-01-11T10:48:34.532Z,94.98
2023-01-11T10:51:13.268Z,94.58
2023-01-11T10:53:55.025Z,94.39
2023-01-11T10:56:42.903Z,93.41
2023-01-11T10:59:28.306Z,93.68
2023-01-11T11:02:11.151Z,93.91
2023-01-11T11:05:11.812Z,93.36
2023-01-11T11:08:13.213Z,91.79
2023-01-11T11:10:55.326Z,91.86
2023-01-11T11:13:43.576Z,92.17
2023-01-11T11:16:22.128Z,89.48
2023-01-11T11:18:55.604Z,89.75
2023-01-11T11:21:26.982Z,86.61
2023-01-11T11:23:59.507Z,86.15
2023-01-11T11:26:33.903Z,84.22
2023-01-11T11:29:03.929Z,83.39
2023-01-11T11:31:31.750Z,81.47
2023-01-11T11:34:06.838Z,80.38
2023-01-11T11:36:44.758Z,81.09
2023-01-11T11:39:39.039Z,78.90
2023-01-11T11:42:15.188Z,80.01
2023-01-11T11:44:41.802Z,78.38
2023-01-11T11:47:16.677Z,78.23
2023-01-11T11:49:43.684Z,78.23
2023-01-11T11:52:17.418Z,78.00
2023-01-11T11:54:53.387Z,77.96
2023-01-11T11:57:28.228Z,77.99
2023-01-11T12:00:07.116Z,77.84
2023-01-11T12:02:36.651Z,78.12
2023-01-11T12:05:09.162Z,75.77
2023-01-11T12:07:49.823Z,77.57
2023-01-11T12:10:23.605Z,77.55
2023-01-11T12:12:57.640Z,75.79
2023-01-11T12:15:28.765Z,78.50
2023-01-11T12:18:15.409Z,77.72
2023-01-11T12:20:44.571Z,76.23
2023-01-11T12:23:17.325Z,76.22
2023-01-11T12:26:05.893Z,75.43
2023-01-11T12:29:14.350Z,75.67
2023-01-11T12:32:01.768Z,75.06
2023-01-11T12:35:00.786Z,75.56
2023-01-11T12:37:54.605Z,76.05
2023-01-11T12:40:33.672Z,75.44
2023-01-11T12:43:07.564Z,74.30
2023-01-11T12:45:48.949Z,72.88
2023-01-11T12:48:27.782Z,73.30
2023-01-11T12:50:55.127Z,74.78
2023-01-11T12:53:40.487Z,74.52
2023-01-11T12:56:10.090Z,75.67
2023-01-11T12:58:56.045Z,74.80
2023-01-11T13:01:45.537Z,73.93
2023-01-11T13:04:32.045Z,75.65
2023-01-11T13:07:07.333Z,74.83
2023-01-11T13:10:04.879Z,74.72
2023-01-11T13:12:46.966Z,73.75
2023-01-11T13:15:43.861Z,76.97
2023-01-11T13:18:21.914Z,75.67
2023-01-11T13:21:03.608Z,76.13
2023-01-11T13:23:46.926Z,75.41
2023-01-11T13:26:28.662Z,74.22
2023-01-11T13:29:07.504Z,74.44
2023-01-11T13:31:36.484Z,73.55
2023-01-11T13:34:26.471Z,73.18
2023-01-11T13:37:02.678Z,72.60
2023-01-11T13:39:48.035Z,73.73
2023-01-11T13:42:27.191Z,72.68
2023-01-11T13:45:01.402Z,72.25
2023-01-11T13:47:37.446Z,72.25
2023-01-11T13:50:15.709Z,72.47
2023-01-11T13:52:51.985Z,72.32
2023-01-11T13:55:26.944Z,71.96
2023-01-11T13:58:31.229Z,71.07
2023-01-11T14:01:08.129Z,71.54
2023-01-11T14:04:00.875Z,70.85
2023-01-11T14:06:42.690Z,70.36
2023-01-11T14:09:28.921Z,68.30
2023-01-11T14:12:08.802Z,72.21
2023-01-11T14:14:54.280Z,74.09
2023-01-11T14:17:59.394Z,72.77
2023-01-11T14:21:05.029Z,71.06
2023-01-11T14:23:51.408Z,72.00
2023-01-11T14:26:54.322Z,76.44
2023-01-11T14:30:08.664Z,74.41
2023-01-11T14:33:02.327Z,70.46
2023-01-11T14:35:47.934Z,70.90
2023-01-11T14:38:46.977Z,68.15
2023-01-11T14:41:52.905Z,69.20
2023-01-11T14:44:32.861Z,68.41
2023-01-11T14:47:10.635Z,69.69
2023-01-11T14:49:51.348Z,68.98
2023-01-11T14:52:38.997Z,70.91
2023-01-11T14:55:16.156Z,74.43
2023-01-11T14:57:59.332Z,70.33
2023-01-11T15:00:25.799Z,70.75
2023-01-11T15:03:20.789Z,73.61
2023-01-11T15:05:55.511Z,78.15
2023-01-11T15:08:34.319Z,79.73
2023-01-11T15:11:05.547Z,77.21
2023-01-11T15:13:42.769Z,73.62
2023-01-11T15:16:38.739Z,77.69
2023-01-11T15:19:09.051Z,78.27
2023-01-11T15:21:41.671Z,78.79
2023-01-11T15:24:22.158Z,80.41
2023-01-11T15:26:50.247Z,80.36
2023-01-11T15:29:41.727Z,80.66
2023-01-11T15:32:17.712Z,80.42
2023-01-11T15:34:47.181Z,79.99
2023-01-11T15:37:43.437Z,81.13
2023-01-11T15:40:16.916Z,81.42
2023-01-11T15:43:05.666Z,81.23
2023-01-11T15:46:14.095Z,82.61
2023-01-11T15:49:00.469Z,82.91
2023-01-11T15:52:09.092Z,82.83
2023-01-11T15:55:13.799Z,83.37
2023-01-11T15:58:08.532Z,82.87
2023-01-11T16:00:49.079Z,82.41
2023-01-11T16:03:41.991Z,83.50
2023-01-11T16:06:35.003Z,82.48
2023-01-11T16:09:10.407Z,82.91
2023-01-11T16:11:55.625Z,82.17
2023-01-11T16:14:41.332Z,82.15
2023-01-11T16:17:18.502Z,82.66
2023-01-11T16:19:45.690Z,83.32
2023-01-11T16:22:22.295Z,82.82
2023-01-11T16:24:53.911Z,83.33
2023-01-11T16:27:25.559Z,82.96
2023-01-11T16:29:53.097Z,83.77
2023-01-11T16:32:34.243Z,83.79
2023-01-11T16:35:02.590Z,84.30
2023-01-11T16:37:41.940Z,83.18
2023-01-11T16:40:27.073Z,84.00
2023-01-11T16:42:59.224Z,83.78
2023-01-11T16:45:39.969Z,84.33
2023-01-11T16:48:19.789Z,84.20
2023-01-11T16:51:08.480Z,84.77
2023-01-11T16:53:38.381Z,84.15
2023-01-11T16:56:23.649Z,84.06
2023-01-11T16:59:16.448Z,84.06
2023-01-11T17:01:54.864Z,85.14
2023-01-11T17:04:31.582Z,85.29
2023-01-11T17:07:22.701Z,85.68
2023-01-11T17:09:49.621Z,83.64
2023-01-11T17:12:17.967Z,83.11
2023-01-11T17:14:59.682Z,84.05
2023-01-11T17:17:27.926Z,84.85
2023-01-11T17:19:58.701Z,84.18
2023-01-11T17:22:32.263Z,83.47
2023-01-11T17:25:07.559Z,84.03
2023-01-11T17:27:40.620Z,83.47
2023-01-11T17:30:20.370Z,83.04
2023-01-11T17:32:50.659Z,84.11
2023-01-11T17:35:21.125Z,85.88
2023-01-11T17:37:50.784Z,85.16
2023-01-11T17:40:28.015Z,85.17
2023-01-11T17:43:39.535Z,85.84
2023-01-11T17:46:07.806Z,86.78
2023-01-11T17:48:35.197Z,86.95
2023-01-11T17:51:04.307Z,86.42
2023-01-11T17:53:34.379Z,87.22
2023-01-11T17:56:07.295Z,87.05
2023-01-11T17:58:38.123Z,86.98
2023-01-11T18:01:04.838Z,86.10
2023-01-11T18:03:40.956Z,85.85
2023-01-11T18:06:41.578Z,85.94
2023-01-11T18:09:28.467Z,85.25
2023-01-11T18:12:15.176Z,86.11
2023-01-11T18:14:50.381Z,85.97
2023-01-11T18:17:32.104Z,85.24
2023-01-11T18:19:59.888Z,84.59
2023-01-11T18:22:42.552Z,84.92
2023-01-11T18:25:19.776Z,85.70
2023-01-11T18:27:47.119Z,84.00
2023-01-11T18:30:32.194Z,83.65
2023-01-11T18:33:02.064Z,83.23
2023-01-11T18:35:30.530Z,84.84
2023-01-11T18:37:57.010Z,84.38
2023-01-11T18:40:23.662Z,83.75
2023-01-11T18:42:52.738Z,83.74
2023-01-11T18:45:21.793Z,83.98
2023-01-11T18:47:48.598Z,83.66
2023-01-11T18:50:15.959Z,83.44
2023-01-11T18:52:44.142Z,85.20
2023-01-11T18:55:11.527Z,85.02
2023-01-11T18:57:39.607Z,83.86
2023-01-11T19:00:07.003Z,83.69
2023-01-11T19:02:44.225Z,84.48
2023-01-11T19:05:12.437Z,84.25
2023-01-11T19:07:39.588Z,84.71
2023-01-11T19:10:07.185Z,85.89
2023-01-11T19:12:35.135Z,85.10
2023-01-11T19:15:01.664Z,84.07
2023-01-11T19:17:31.701Z,84.13
2023-01-11T19:19:58.218Z,85.18
2023-01-11T19:22:26.752Z,84.98
2023-01-11T19:24:54.029Z,83.68
2023-01-11T19:27:21.125Z,80.33
2023-01-11T19:29:47.834Z,81.44
2023-01-11T19:32:15.730Z,82.63
2023-01-11T19:34:42.932Z,83.85
2023-01-11T19:37:10.455Z,82.63
2023-01-11T19:39:37.226Z,83.21
2023-01-11T19:42:04.249Z,83.74
2023-01-11T19:44:36.939Z,85.57
2023-01-11T19:47:12.395Z,85.66
2023-01-11T19:49:41.405Z,84.40
2023-01-11T19:52:13.726Z,83.70
2023-01-11T19:54:45.382Z,84.34
2023-01-11T19:57:14.337Z,81.49
2023-01-11T19:59:42.176Z,82.68
2023-01-11T20:02:11.249Z,82.81
2023-01-11T20:04:38.468Z,80.19
2023-01-11T20:07:06.006Z,82.66
2023-01-11T20:09:32.747Z,83.51
2023-01-11T20:11:59.541Z,80.51
2023-01-11T20:14:26.681Z,82.02
2023-01-11T20:16:53.369Z,81.21
2023-01-11T20:19:20.272Z,79.74
2023-01-11T20:21:47.091Z,79.29
2023-01-11T20:24:14.471Z,79.54
2023-01-11T20:26:41.847Z,82.11
2023-01-11T20:29:08.642Z,82.65
2023-01-11T20:31:36.114Z,82.71
2023-01-11T20:34:09.814Z,82.36
2023-01-11T20:36:36.646Z,84.06
2023-01-11T20:39:05.432Z,83.25
2023-01-11T20:41:47.863Z,80.73
2023-01-11T20:44:19.106Z,79.93
2023-01-11T20:46:48.139Z,81.00
2023-01-11T20:49:17.078Z,81.10
2023-01-11T20:51:45.765Z,81.82
2023-01-11T20:54:12.731Z,81.95
2023-01-11T20:56:39.680Z,82.01
2023-01-11T20:59:08.427Z,80.74
2023-01-11T21:01:36.789Z,81.52
2023-01-11T21:04:06.614Z,81.34
2023-01-11T21:06:35.784Z,81.13
2023-01-11T21:09:02.786Z,80.80
2023-01-11T21:11:33.509Z,80.05
2023-01-11T21:14:01.733Z,81.17
2023-01-11T21:16:29.690Z,80.03
2023-01-11T21:18:59.213Z,80.44
2023-01-11T21:21:27.120Z,79.10
2023-01-11T21:23:55.645Z,79.76
2023-01-11T21:26:22.812Z,79.53
2023-01-11T21:29:00.980Z,77.02
2023-01-11T21:31:29.027Z,80.30
2023-01-11T21:33:56.464Z,76.44
2023-01-11T21:36:25.057Z,75.57
2023-01-11T21:38:51.940Z,74.91
2023-01-11T21:41:44.139Z,76.24
2023-01-11T21:44:12.173Z,76.79
2023-01-11T21:46:39.997Z,76.08
2023-01-11T21:49:07.074Z,75.24
2023-01-11T21:51:34.356Z,74.85
2023-01-11T21:54:05.534Z,74.26
2023-01-11T21:56:32.459Z,73.53
2023-01-11T21:58:59.376Z,73.89
2023-01-11T22:01:26.193Z,73.33
2023-01-11T22:03:52.716Z,72.27
2023-01-11T22:06:19.418Z,72.99
2023-01-11T22:08:47.189Z,72.78
2023-01-11T22:11:16.234Z,73.21
2023-01-11T22:13:43.146Z,72.60
2023-01-11T22:16:14.901Z,73.55
2023-01-11T22:18:42.437Z,73.68
2023-01-11T22:21:12.593Z,72.58
2023-01-11T22:23:40.377Z,74.30
2023-01-11T22:26:11.745Z,73.25
2023-01-11T22:28:57.303Z,75.91
2023-01-11T22:31:25.169Z,74.05
2023-01-11T22:33:51.957Z,74.87
2023-01-11T22:36:19.264Z,74.83
2023-01-11T22:38:46.756Z,72.64
2023-01-11T22:41:14.996Z,74.20
2023-01-11T22:43:43.026Z,75.43
2023-01-11T22:46:18.142Z,74.04
2023-01-11T22:48:47.039Z,74.81
2023-01-11T22:51:15.419Z,73.46
2023-01-11T22:53:44.235Z,73.37
2023-01-11T22:56:12.306Z,75.49
2023-01-11T22:58:39.464Z,74.45
2023-01-11T23:01:22.707Z,74.97
2023-01-11T23:03:50.302Z,74.53
2023-01-11T23:06:38.202Z,74.23
2023-01-11T23:09:08.447Z,72.92
2023-01-11T23:11:58.807Z,72.13
2023-01-11T23:14:29.558Z,72.63
2023-01-11T23:16:59.217Z,72.06
2023-01-11T23:19:25.772Z,73.61
2023-01-11T23:21:52.184Z,72.95
2023-01-11T23:24:18.842Z,74.18
2023-01-11T23:26:45.465Z,73.73
2023-01-11T23:29:12.894Z,73.67
2023-01-11T23:31:39.289Z,74.41
2023-01-11T23:34:08.290Z,74.39
2023-01-11T23:36:37.769Z,73.49
2023-01-11T23:39:10.290Z,75.35
2023-01-11T23:41:55.819Z,74.75
2023-01-11T23:44:23.061Z,74.01
2023-01-11T23:47:09.029Z,73.76
2023-01-11T23:49:36.091Z,73.94
2023-01-11T23:52:02.463Z,74.17
2023-01-11T23:54:30.386Z,71.68
2023-01-11T23:56:57.877Z,72.59
2023-01-11T23:59:25.062Z,72.75
